Time;durP1;ratioP1;P1;durP2;ratioP2;P2;SDS_P1;SDS_P2;PMS_P1;PMS_P2;Temp;Humidity;BMP_temperature;BMP_pressure;BME280_temperature;BME280_humidity;BME280_pressure;Samples;Min_cycle;Max_cycle;Signal;HPM_P1;HPM_P2
2020/12/31 00:00:28;;;;;;;15.43;12.50;;;5.00;99.90;;;;;;5007346;28;21059;-50
2020/12/31 00:02:56;;;;;;;13.97;12.20;;;4.90;99.90;;;;;;5007480;28;20472;-50
2020/12/31 00:05:24;;;;;;;15.23;11.87;;;4.90;99.90;;;;;;5007749;28;20475;-50
2020/12/31 00:07:51;;;;;;;15.00;12.33;;;4.90;99.90;;;;;;5008232;28;20508;-51
2020/12/31 00:10:18;;;;;;;18.10;13.67;;;4.90;99.90;;;;;;5011007;28;20487;-50
2020/12/31 00:12:45;;;;;;;14.03;11.43;;;4.90;99.90;;;;;;5010071;28;20490;-50
2020/12/31 00:15:13;;;;;;;13.93;11.30;;;4.90;99.90;;;;;;5013589;28;20510;-50
2020/12/31 00:17:40;;;;;;;15.43;12.13;;;4.90;99.90;;;;;;5010845;28;20935;-50
2020/12/31 00:20:10;;;;;;;13.67;12.27;;;4.90;99.90;;;;;;5010510;28;20482;-51
2020/12/31 00:22:38;;;;;;;14.17;11.77;;;4.90;99.90;;;;;;5010404;28;20503;-51
2020/12/31 00:25:09;;;;;;;16.00;12.23;;;4.90;99.90;;;;;;5010880;28;20850;-51
2020/12/31 00:27:36;;;;;;;14.20;12.47;;;4.90;99.90;;;;;;5010265;28;20502;-49
2020/12/31 00:30:07;;;;;;;16.33;12.33;;;4.90;99.90;;;;;;5010774;28;20899;-49
2020/12/31 00:32:35;;;;;;;14.17;12.07;;;4.90;99.90;;;;;;5009836;28;20489;-49
2020/12/31 00:35:03;;;;;;;14.77;13.00;;;4.90;99.90;;;;;;5010612;28;20878;-51
2020/12/31 00:37:34;;;;;;;14.13;12.63;;;4.90;99.90;;;;;;5011035;28;20646;-51
2020/12/31 00:40:03;;;;;;;14.30;11.87;;;4.90;99.90;;;;;;5014985;28;20496;-50
2020/12/31 00:42:30;;;;;;;14.20;12.70;;;4.90;99.90;;;;;;5012708;28;20500;-49
2020/12/31 00:44:58;;;;;;;14.77;12.50;;;4.90;99.90;;;;;;5022932;28;20985;-50
2020/12/31 00:47:25;;;;;;;16.37;13.33;;;4.90;99.90;;;;;;5028361;28;20765;-50
2020/12/31 00:49:52;;;;;;;15.13;13.30;;;4.90;99.90;;;;;;5030062;28;20822;-50
2020/12/31 00:52:20;;;;;;;15.33;12.53;;;4.90;99.90;;;;;;5029385;28;20479;-50
2020/12/31 00:54:48;;;;;;;17.90;14.07;;;4.80;99.90;;;;;;5045058;28;20506;-50
2020/12/31 00:57:16;;;;;;;17.67;13.10;;;4.80;99.90;;;;;;5010350;28;20503;-50
2020/12/31 00:59:43;;;;;;;16.83;14.30;;;4.90;99.90;;;;;;5010039;28;20507;-50
2020/12/31 01:02:11;;;;;;;20.17;14.93;;;4.90;99.90;;;;;;5007100;28;20477;-50
2020/12/31 01:04:39;;;;;;;16.70;13.67;;;4.90;99.90;;;;;;5009340;28;21005;-50
2020/12/31 01:07:06;;;;;;;18.03;14.23;;;4.80;99.90;;;;;;5008779;28;20566;-51
2020/12/31 01:09:33;;;;;;;19.23;14.90;;;4.80;99.90;;;;;;5008755;28;20538;-50
2020/12/31 01:12:03;;;;;;;18.07;15.13;;;4.80;99.90;;;;;;5011164;28;20482;-49
2020/12/31 01:14:31;;;;;;;18.27;15.50;;;4.80;99.90;;;;;;5008562;28;20857;-50
2020/12/31 01:16:58;;;;;;;19.87;15.60;;;4.70;99.90;;;;;;5008491;28;20561;-50
2020/12/31 01:19:26;;;;;;;20.10;16.97;;;4.70;99.90;;;;;;5007602;28;20265;-50
2020/12/31 01:21:53;;;;;;;21.43;16.53;;;4.70;99.90;;;;;;5007949;28;20570;-50
2020/12/31 01:24:21;;;;;;;22.07;18.07;;;4.70;99.90;;;;;;5008481;28;20607;-50
2020/12/31 01:26:49;;;;;;;22.90;19.00;;;4.70;99.90;;;;;;5007667;28;20489;-51
2020/12/31 01:29:16;;;;;;;26.57;20.77;;;4.60;99.90;;;;;;5008067;28;20502;-50
2020/12/31 01:31:48;;;;;;;23.63;19.70;;;4.60;99.90;;;;;;5007139;28;20571;-51
2020/12/31 01:34:15;;;;;;;25.87;20.37;;;4.60;99.90;;;;;;5008895;28;20912;-51
2020/12/31 01:36:42;;;;;;;26.10;19.57;;;4.60;99.90;;;;;;5006719;28;21186;-51
2020/12/31 01:39:10;;;;;;;25.30;21.43;;;4.60;99.90;;;;;;5007898;28;21022;-49
2020/12/31 01:41:37;;;;;;;28.93;21.23;;;4.60;99.90;;;;;;5017703;28;20883;-51
2020/12/31 01:44:07;;;;;;;32.60;22.80;;;4.60;99.90;;;;;;5027132;28;20471;-49
2020/12/31 01:46:37;;;;;;;26.60;21.03;;;4.60;99.90;;;;;;5027215;28;20567;-50
2020/12/31 01:49:08;;;;;;;26.90;22.00;;;4.60;99.90;;;;;;5027838;28;20486;-49
2020/12/31 01:51:37;;;;;;;26.73;22.10;;;4.50;99.90;;;;;;5028175;28;20634;-49
2020/12/31 01:54:05;;;;;;;27.77;21.13;;;4.50;99.90;;;;;;5028795;28;20488;-49
2020/12/31 01:56:35;;;;;;;30.83;23.20;;;4.40;99.90;;;;;;5015521;28;20506;-51
2020/12/31 01:59:03;;;;;;;29.70;23.00;;;4.50;99.90;;;;;;5008777;28;20483;-49
2020/12/31 02:01:30;;;;;;;26.47;21.47;;;4.60;99.90;;;;;;5008335;28;20561;-50
2020/12/31 02:03:59;;;;;;;27.20;20.80;;;4.50;99.90;;;;;;5009495;28;20485;-49
2020/12/31 02:06:29;;;;;;;31.13;24.43;;;4.50;99.90;;;;;;5008897;28;20504;-50
2020/12/31 02:08:56;;;;;;;30.80;23.67;;;4.50;99.90;;;;;;5009343;28;20900;-50
2020/12/31 02:11:25;;;;;;;28.00;22.93;;;4.40;99.90;;;;;;5008228;28;20893;-49
2020/12/31 02:13:54;;;;;;;31.77;23.90;;;4.40;99.90;;;;;;5008702;28;20491;-49
2020/12/31 02:16:23;;;;;;;32.80;26.17;;;4.40;99.90;;;;;;5008485;28;20561;-50
2020/12/31 02:18:55;;;;;;;33.27;25.10;;;4.40;99.90;;;;;;5008628;28;20518;-49
2020/12/31 02:21:27;;;;;;;32.50;24.53;;;4.40;99.90;;;;;;5010753;28;20599;-50
2020/12/31 02:23:57;;;;;;;31.77;23.47;;;4.40;99.90;;;;;;5008374;28;20456;-52
2020/12/31 02:26:27;;;;;;;34.53;27.00;;;4.40;99.90;;;;;;5008504;28;21034;-50
2020/12/31 02:28:55;;;;;;;34.93;25.87;;;4.30;99.90;;;;;;5008893;28;20555;-51
2020/12/31 02:31:24;;;;;;;35.80;27.60;;;4.40;99.90;;;;;;5006665;28;20480;-49
2020/12/31 02:33:53;;;;;;;34.83;26.30;;;4.40;99.90;;;;;;5007044;28;20531;-50
2020/12/31 02:36:24;;;;;;;35.20;27.03;;;4.40;99.90;;;;;;5024123;28;20469;-50
2020/12/31 02:38:52;;;;;;;33.27;26.93;;;4.40;99.90;;;;;;5014452;28;20548;-50
2020/12/31 02:41:20;;;;;;;34.03;26.47;;;4.40;99.90;;;;;;5027658;28;20551;-49
2020/12/31 02:43:47;;;;;;;33.57;26.70;;;4.40;99.90;;;;;;5027755;28;20505;-50
2020/12/31 02:46:19;;;;;;;37.87;26.90;;;4.30;99.90;;;;;;5027749;28;21001;-50
2020/12/31 02:48:48;;;;;;;35.07;26.60;;;4.40;99.90;;;;;;5027817;28;20559;-50
2020/12/31 02:51:16;;;;;;;35.33;26.57;;;4.30;99.90;;;;;;5027125;28;20999;-49
2020/12/31 02:53:44;;;;;;;37.00;26.83;;;4.30;99.90;;;;;;5027688;28;20577;-49
2020/12/31 02:56:14;;;;;;;37.53;26.57;;;4.30;99.90;;;;;;5015337;28;20505;-49
2020/12/31 02:58:42;;;;;;;36.57;27.97;;;4.30;99.90;;;;;;5007685;28;21006;-49
2020/12/31 03:01:10;;;;;;;37.93;27.17;;;4.20;99.90;;;;;;5007961;28;20573;-50
2020/12/31 03:03:38;;;;;;;38.60;28.47;;;4.20;99.90;;;;;;5007768;28;20477;-50
2020/12/31 03:06:07;;;;;;;40.13;28.33;;;4.20;99.90;;;;;;5008167;28;21077;-49
2020/12/31 03:08:36;;;;;;;37.70;27.97;;;4.20;99.90;;;;;;5007820;28;20562;-49
2020/12/31 03:11:05;;;;;;;37.60;28.53;;;4.30;99.90;;;;;;5007695;28;21036;-50
2020/12/31 03:13:32;;;;;;;41.10;27.00;;;4.20;99.90;;;;;;5007529;28;20537;-50
2020/12/31 03:16:00;;;;;;;36.57;27.17;;;4.20;99.90;;;;;;5007652;28;21126;-51
2020/12/31 03:18:27;;;;;;;37.57;27.80;;;4.20;99.90;;;;;;5008113;28;20487;-49
2020/12/31 03:20:55;;;;;;;37.90;26.27;;;4.20;99.90;;;;;;5007470;28;20481;-51
2020/12/31 03:23:22;;;;;;;40.13;27.90;;;4.20;99.90;;;;;;5009878;28;20477;-49
2020/12/31 03:25:49;;;;;;;37.93;27.93;;;4.20;99.90;;;;;;5007430;28;20574;-50
2020/12/31 03:28:17;;;;;;;40.87;28.30;;;4.20;99.90;;;;;;5007834;28;20503;-50
2020/12/31 03:30:45;;;;;;;37.80;27.27;;;4.20;99.90;;;;;;5006455;28;20512;-52
2020/12/31 03:33:14;;;;;;;39.47;27.87;;;4.20;99.90;;;;;;5014817;28;20490;-50
2020/12/31 03:35:43;;;;;;;39.50;28.47;;;4.10;99.90;;;;;;5011266;28;20588;-50
2020/12/31 03:38:11;;;;;;;38.63;27.53;;;4.00;99.90;;;;;;5020171;28;20575;-49
2020/12/31 03:40:39;;;;;;;35.90;26.90;;;4.00;99.90;;;;;;5027117;28;20475;-50
2020/12/31 03:43:08;;;;;;;39.07;27.63;;;4.00;99.90;;;;;;5027688;28;20485;-49
2020/12/31 03:45:37;;;;;;;38.30;29.10;;;4.00;99.90;;;;;;5031443;28;20471;-49
2020/12/31 03:48:05;;;;;;;38.73;26.50;;;3.90;99.90;;;;;;5031219;28;20469;-49
2020/12/31 03:50:34;;;;;;;41.17;27.30;;;3.90;99.90;;;;;;5030967;28;21023;-50
2020/12/31 03:53:01;;;;;;;39.57;27.10;;;3.90;99.90;;;;;;5030893;28;20508;-50
2020/12/31 03:55:29;;;;;;;41.97;29.07;;;3.90;99.90;;;;;;5022697;28;20536;-50
2020/12/31 03:57:56;;;;;;;37.20;26.53;;;3.90;99.90;;;;;;5011259;28;21170;-49
2020/12/31 04:00:23;;;;;;;36.73;26.77;;;3.80;99.90;;;;;;5010981;28;20981;-50
2020/12/31 04:02:51;;;;;;;39.93;27.93;;;3.80;99.90;;;;;;5010573;28;20894;-50
2020/12/31 04:05:18;;;;;;;42.13;28.53;;;3.80;99.90;;;;;;5011750;28;20887;-50
2020/12/31 04:07:46;;;;;;;40.23;28.53;;;3.80;99.90;;;;;;5011074;28;20478;-50
2020/12/31 04:10:13;;;;;;;41.87;27.37;;;3.80;99.90;;;;;;5010731;28;20917;-49
2020/12/31 04:12:41;;;;;;;36.57;27.33;;;3.80;99.90;;;;;;5010383;28;20511;-49
2020/12/31 04:15:08;;;;;;;38.37;28.20;;;3.80;99.90;;;;;;5011047;28;20573;-49
2020/12/31 04:17:36;;;;;;;41.87;27.90;;;3.80;99.90;;;;;;5010614;28;20499;-50
2020/12/31 04:20:05;;;;;;;38.27;26.70;;;3.80;99.90;;;;;;5010478;28;20558;-49
2020/12/31 04:22:32;;;;;;;38.00;27.13;;;3.80;99.90;;;;;;5010011;28;20506;-49
2020/12/31 04:25:01;;;;;;;39.63;26.83;;;3.80;99.90;;;;;;5008917;28;20521;-51
2020/12/31 04:27:28;;;;;;;37.43;27.23;;;3.80;99.90;;;;;;5019244;28;20529;-50
2020/12/31 04:29:55;;;;;;;36.80;26.50;;;3.90;99.90;;;;;;5011120;28;20480;-50
2020/12/31 04:32:22;;;;;;;42.57;28.10;;;3.90;99.90;;;;;;5011076;28;20570;-49
2020/12/31 04:34:50;;;;;;;40.80;27.87;;;3.90;99.90;;;;;;5018948;28;20480;-50
2020/12/31 04:37:17;;;;;;;40.17;27.47;;;3.90;99.90;;;;;;5030073;28;20475;-50
2020/12/31 04:39:45;;;;;;;38.03;26.90;;;3.90;99.90;;;;;;5030155;28;20492;-50
2020/12/31 04:42:13;;;;;;;40.97;26.97;;;3.80;99.90;;;;;;5029555;28;20507;-51
2020/12/31 04:44:41;;;;;;;38.10;27.40;;;3.90;99.90;;;;;;5030432;28;20515;-50
2020/12/31 04:47:20;;;;;;;40.07;27.43;;;3.80;99.90;;;;;;5030281;28;20473;-49
2020/12/31 04:49:52;;;;;;;40.03;26.63;;;3.80;99.90;;;;;;5029663;28;20856;-50
2020/12/31 04:52:20;;;;;;;39.07;26.27;;;3.90;99.90;;;;;;5029900;28;20583;-50
2020/12/31 04:54:48;;;;;;;38.33;26.13;;;3.90;99.90;;;;;;5024445;28;20885;-50
2020/12/31 04:57:16;;;;;;;35.30;25.80;;;3.90;99.90;;;;;;5010501;28;20556;-51
2020/12/31 04:59:44;;;;;;;36.80;27.07;;;3.90;99.90;;;;;;5010211;28;20480;-49
2020/12/31 05:02:11;;;;;;;35.87;25.10;;;3.90;99.90;;;;;;5009117;28;20849;-50
2020/12/31 05:04:39;;;;;;;37.87;27.20;;;3.90;99.90;;;;;;5009924;28;21017;-49
2020/12/31 05:07:08;;;;;;;38.30;26.23;;;3.90;99.90;;;;;;5010287;28;20998;-49
2020/12/31 05:09:36;;;;;;;40.20;27.87;;;3.90;99.90;;;;;;5011307;28;20480;-50
2020/12/31 05:12:04;;;;;;;36.70;25.43;;;3.90;99.90;;;;;;5008951;28;20475;-49
2020/12/31 05:14:33;;;;;;;41.23;27.13;;;3.90;99.90;;;;;;5009891;28;20548;-51
2020/12/31 05:17:16;;;;;;;35.87;26.03;;;3.90;99.90;;;;;;5009501;28;20469;-50
2020/12/31 05:19:44;;;;;;;36.70;26.40;;;3.90;99.90;;;;;;5008232;28;21002;-49
2020/12/31 05:22:14;;;;;;;36.90;27.27;;;3.90;99.90;;;;;;5026298;28;20483;-51
2020/12/31 05:24:44;;;;;;;38.13;26.77;;;3.90;99.90;;;;;;5013007;28;20491;-50
2020/12/31 05:27:23;;;;;;;37.13;26.27;;;3.90;99.90;;;;;;5006925;28;20487;-50
2020/12/31 05:29:58;;;;;;;35.57;25.53;;;3.90;99.90;;;;;;5013463;28;20471;-50
2020/12/31 05:32:27;;;;;;;35.63;26.93;;;3.80;99.90;;;;;;5017391;28;20556;-51
2020/12/31 05:34:56;;;;;;;37.90;25.90;;;3.90;99.90;;;;;;5026863;28;20564;-50
2020/12/31 05:37:27;;;;;;;38.27;26.93;;;3.90;99.90;;;;;;5028944;28;20976;-49
2020/12/31 05:40:00;;;;;;;38.03;27.17;;;3.90;99.90;;;;;;5028490;28;20472;-50
2020/12/31 05:42:29;;;;;;;39.57;25.30;;;3.80;99.90;;;;;;5016043;28;20479;-49
2020/12/31 05:45:11;;;;;;;36.97;26.57;;;3.80;99.90;;;;;;5009370;28;20490;-49
2020/12/31 05:47:50;;;;;;;41.63;27.53;;;3.90;99.90;;;;;;5007743;28;20493;-49
2020/12/31 05:50:24;;;;;;;36.97;26.80;;;3.80;99.90;;;;;;5007263;28;20567;-50
2020/12/31 05:52:52;;;;;;;37.07;25.87;;;3.80;99.90;;;;;;5007455;28;20483;-50
2020/12/31 05:55:21;;;;;;;38.87;27.83;;;3.80;99.90;;;;;;5007541;28;21069;-50
2020/12/31 05:57:50;;;;;;;43.27;29.07;;;3.90;99.90;;;;;;5007613;28;20540;-49
2020/12/31 06:00:22;;;;;;;40.13;27.03;;;3.90;99.90;;;;;;5007177;28;20908;-50
2020/12/31 06:02:52;;;;;;;40.10;29.27;;;3.90;99.90;;;;;;5006502;28;20486;-50
2020/12/31 06:05:21;;;;;;;39.57;28.20;;;3.90;99.90;;;;;;5007624;28;20662;-51
2020/12/31 06:07:50;;;;;;;40.07;29.33;;;3.80;99.90;;;;;;5007331;28;20531;-49
2020/12/31 06:10:25;;;;;;;41.70;29.23;;;3.90;99.90;;;;;;5008171;28;20553;-50
2020/12/31 06:12:58;;;;;;;41.73;30.40;;;3.90;99.90;;;;;;5006908;28;20484;-51
2020/12/31 06:15:30;;;;;;;39.70;28.40;;;3.90;99.90;;;;;;5007221;28;20584;-50
2020/12/31 06:17:59;;;;;;;40.93;27.87;;;3.90;99.90;;;;;;5007355;28;20913;-49
2020/12/31 06:20:29;;;;;;;40.10;28.77;;;3.90;99.90;;;;;;5006517;28;20599;-51
2020/12/31 06:23:05;;;;;;;44.83;32.00;;;3.90;99.90;;;;;;5006966;28;20553;-49
2020/12/31 06:25:41;;;;;;;38.10;28.43;;;3.90;99.90;;;;;;5004421;28;20501;-50
2020/12/31 06:28:12;;;;;;;38.47;26.67;;;3.90;99.90;;;;;;4995617;28;20508;-49
2020/12/31 06:30:43;;;;;;;41.00;28.80;;;3.90;99.90;;;;;;4996669;28;20489;-50
2020/12/31 06:33:27;;;;;;;43.80;29.50;;;4.00;99.90;;;;;;4996994;28;20521;-50
2020/12/31 06:35:57;;;;;;;40.17;28.33;;;3.90;99.90;;;;;;4997941;28;21182;-51
2020/12/31 06:38:33;;;;;;;40.90;28.57;;;3.90;99.90;;;;;;4996836;28;20498;-53
2020/12/31 06:41:01;;;;;;;39.17;28.53;;;3.90;99.90;;;;;;4997325;28;20564;-50
2020/12/31 06:43:37;;;;;;;39.23;28.47;;;3.90;99.90;;;;;;4997693;28;20721;-49
2020/12/31 06:46:19;;;;;;;34.33;26.23;;;3.90;99.90;;;;;;4997324;28;20493;-50
2020/12/31 06:48:53;;;;;;;38.33;28.53;;;4.00;99.90;;;;;;4996201;28;20571;-51
2020/12/31 06:51:28;;;;;;;37.40;27.43;;;3.90;99.90;;;;;;4997195;28;20490;-49
2020/12/31 06:53:55;;;;;;;38.20;27.93;;;4.00;99.90;;;;;;4997321;28;20531;-50
2020/12/31 06:56:46;;;;;;;37.30;27.83;;;3.90;99.90;;;;;;4997187;28;20494;-50
2020/12/31 06:59:27;;;;;;;37.07;27.70;;;3.90;99.90;;;;;;4996737;28;21262;-50
2020/12/31 07:01:56;;;;;;;38.67;28.13;;;3.90;99.90;;;;;;4996786;28;20531;-50
2020/12/31 07:04:34;;;;;;;38.17;27.73;;;3.90;99.90;;;;;;4997111;28;20510;-50
2020/12/31 07:07:26;;;;;;;37.27;27.80;;;3.80;99.90;;;;;;4995458;28;20490;-50
2020/12/31 07:09:55;;;;;;;38.93;26.57;;;3.90;99.90;;;;;;4997476;28;20569;-52
2020/12/31 07:12:33;;;;;;;37.23;26.80;;;3.90;99.90;;;;;;4996636;28;20486;-50
2020/12/31 07:15:03;;;;;;;42.67;27.13;;;3.90;99.90;;;;;;4997474;28;20488;-50
2020/12/31 07:17:35;;;;;;;38.77;28.93;;;3.90;99.90;;;;;;4995059;28;20517;-49
2020/12/31 07:20:07;;;;;;;40.40;28.43;;;3.90;99.90;;;;;;4995502;28;20523;-51
2020/12/31 07:22:37;;;;;;;37.70;27.53;;;3.90;99.90;;;;;;4998475;28;20838;-50
2020/12/31 07:25:07;;;;;;;36.67;27.30;;;3.90;99.90;;;;;;5006072;28;20472;-49
2020/12/31 07:27:36;;;;;;;37.63;26.53;;;3.90;99.90;;;;;;5002471;28;21043;-49
2020/12/31 07:30:18;;;;;;;35.67;27.27;;;3.90;99.90;;;;;;5004685;28;20479;-49
2020/12/31 07:32:58;;;;;;;37.83;26.87;;;3.90;99.90;;;;;;5001654;28;20492;-49
2020/12/31 07:35:32;;;;;;;38.27;27.63;;;3.90;99.90;;;;;;5004311;28;20793;-50
2020/12/31 07:38:02;;;;;;;39.07;28.07;;;3.90;99.90;;;;;;5004781;28;20913;-52
2020/12/31 07:40:33;;;;;;;35.13;27.20;;;3.90;99.90;;;;;;5004474;28;20478;-49
2020/12/31 07:43:02;;;;;;;38.43;27.17;;;3.90;99.90;;;;;;5003976;28;20485;-49
2020/12/31 07:45:31;;;;;;;36.87;26.93;;;3.90;99.90;;;;;;5003667;28;20477;-49
2020/12/31 07:48:00;;;;;;;36.30;26.40;;;3.80;99.90;;;;;;5002339;28;20507;-50
2020/12/31 07:50:28;;;;;;;37.20;26.93;;;3.80;99.90;;;;;;5003275;28;20518;-49
2020/12/31 07:52:58;;;;;;;36.13;27.10;;;3.90;99.90;;;;;;5003507;28;20514;-50
2020/12/31 07:55:26;;;;;;;35.83;26.33;;;3.80;99.90;;;;;;5002575;28;20493;-50
2020/12/31 07:57:53;;;;;;;38.17;26.33;;;3.80;99.90;;;;;;5001710;28;20510;-52
2020/12/31 08:00:22;;;;;;;35.43;25.20;;;3.80;99.90;;;;;;5000802;28;20573;-49
2020/12/31 08:02:51;;;;;;;34.77;25.77;;;3.80;99.90;;;;;;5002636;28;20839;-49
2020/12/31 08:05:24;;;;;;;39.57;27.03;;;3.90;99.90;;;;;;4998459;28;20498;-50
2020/12/31 08:07:54;;;;;;;39.30;26.30;;;3.90;99.90;;;;;;4994205;28;20572;-50
2020/12/31 08:10:32;;;;;;;37.27;25.87;;;3.90;99.90;;;;;;4996113;28;20477;-50
2020/12/31 08:13:01;;;;;;;34.57;25.33;;;3.90;99.90;;;;;;4994101;28;20832;-50
2020/12/31 08:15:31;;;;;;;33.20;25.33;;;3.90;99.90;;;;;;4996459;28;20487;-50
2020/12/31 08:18:02;;;;;;;32.47;24.40;;;3.90;99.90;;;;;;4992964;28;20541;-50
2020/12/31 08:20:35;;;;;;;30.43;24.00;;;3.90;99.90;;;;;;4993752;28;20847;-52
2020/12/31 08:23:05;;;;;;;33.23;24.53;;;3.90;99.90;;;;;;4993111;28;20867;-50
2020/12/31 08:25:36;;;;;;;29.53;22.40;;;3.90;99.90;;;;;;4995949;28;20857;-50
2020/12/31 08:28:07;;;;;;;31.83;23.23;;;3.90;99.90;;;;;;4999633;28;20483;-49
2020/12/31 08:30:36;;;;;;;27.03;21.50;;;3.90;99.90;;;;;;5022315;28;20508;-49
2020/12/31 08:33:07;;;;;;;30.00;22.50;;;3.90;99.90;;;;;;5024963;28;20499;-50
2020/12/31 08:35:41;;;;;;;29.20;23.23;;;4.00;99.90;;;;;;5008642;28;20540;-52
2020/12/31 08:38:11;;;;;;;27.73;22.27;;;4.00;99.90;;;;;;5008977;28;20902;-51
2020/12/31 08:40:43;;;;;;;26.07;21.30;;;4.00;99.90;;;;;;5008632;28;20565;-50
2020/12/31 08:43:20;;;;;;;26.30;20.50;;;4.00;99.90;;;;;;5007897;28;20634;-49
2020/12/31 08:45:48;;;;;;;26.80;21.10;;;4.00;99.90;;;;;;5008964;28;20485;-49
2020/12/31 08:48:22;;;;;;;26.90;21.17;;;4.00;99.90;;;;;;5009034;28;20587;-49
2020/12/31 08:51:01;;;;;;;26.00;21.13;;;4.00;99.90;;;;;;5008553;28;20518;-50
2020/12/31 08:53:30;;;;;;;27.40;21.23;;;4.00;99.90;;;;;;5008046;28;20507;-49
2020/12/31 08:55:58;;;;;;;24.07;18.97;;;4.00;99.90;;;;;;5009136;28;20573;-50
2020/12/31 08:58:30;;;;;;;25.70;20.13;;;4.00;99.90;;;;;;5008884;28;20484;-51
2020/12/31 09:00:59;;;;;;;24.23;18.77;;;4.10;99.90;;;;;;5009180;28;20479;-50
2020/12/31 09:03:26;;;;;;;24.53;19.50;;;4.00;99.90;;;;;;5008660;28;20483;-50
2020/12/31 09:05:55;;;;;;;24.47;19.80;;;4.00;99.90;;;;;;5005265;28;20993;-49
2020/12/31 09:08:23;;;;;;;23.87;18.73;;;4.00;99.90;;;;;;5006224;28;20487;-50
2020/12/31 09:11:01;;;;;;;24.43;17.90;;;4.10;99.90;;;;;;5009440;28;21037;-51
2020/12/31 09:13:35;;;;;;;23.27;17.93;;;4.10;99.90;;;;;;5004953;28;20501;-49
2020/12/31 09:16:12;;;;;;;21.43;17.87;;;4.10;99.90;;;;;;4999709;28;20919;-54
2020/12/31 09:18:39;;;;;;;25.63;19.20;;;4.10;99.90;;;;;;4999482;28;21002;-49
2020/12/31 09:21:07;;;;;;;20.20;17.43;;;5.10;99.90;;;;;;5009541;28;20558;-49
2020/12/31 09:23:36;;;;;;;21.47;16.90;;;4.90;99.90;;;;;;5002468;28;20569;-48
2020/12/31 09:26:27;;;;;;;20.17;16.40;;;4.60;99.90;;;;;;5006024;28;20471;-49
2020/12/31 09:28:55;;;;;;;21.50;17.03;;;4.40;99.90;;;;;;5008688;28;20544;-48
2020/12/31 09:31:22;;;;;;;20.93;16.07;;;4.40;99.90;;;;;;4986111;28;20487;-48
2020/12/31 09:33:57;;;;;;;20.95;14.92;;;4.30;99.90;;;;;;3772522;28;10002988;-48
2020/12/31 09:36:25;;;;;;;22.48;20.23;;;4.20;99.90;;;;;;2411321;28;10003034;-48
2020/12/31 09:38:53;;;;;;;21.00;17.70;;;4.40;99.90;;;;;;5005849;28;20339;-48
2020/12/31 09:41:21;;;;;;;26.53;16.63;;;4.40;99.90;;;;;;5008391;28;20484;-47
2020/12/31 09:43:50;;;;;;;20.83;16.17;;;4.30;99.90;;;;;;5008140;28;20519;-48
2020/12/31 09:46:19;;;;;;;22.80;16.23;;;4.40;99.90;;;;;;5009268;28;20885;-49
2020/12/31 09:48:47;;;;;;;18.93;16.20;;;4.30;99.90;;;;;;5010843;28;20534;-48
2020/12/31 09:51:15;;;;;;;20.40;16.57;;;4.30;99.90;;;;;;5006854;28;20516;-48
2020/12/31 09:53:42;;;;;;;20.80;17.37;;;4.30;99.90;;;;;;5009692;28;20600;-47
2020/12/31 09:56:11;;;;;;;20.70;16.17;;;4.20;99.90;;;;;;5005528;28;20578;-48
2020/12/31 09:58:41;;;;;;;18.47;15.63;;;4.20;99.90;;;;;;5006058;28;20933;-48
2020/12/31 10:01:09;;;;;;;19.53;16.90;;;4.20;99.90;;;;;;5006206;28;20579;-48
2020/12/31 10:03:36;;;;;;;17.23;15.40;;;4.80;99.90;;;;;;5006873;28;20991;-50
2020/12/31 10:06:06;;;;;;;17.97;15.57;;;4.60;99.90;;;;;;5006314;28;20888;-48
2020/12/31 10:08:34;;;;;;;17.27;15.07;;;4.50;99.90;;;;;;5008497;28;20711;-47
2020/12/31 10:11:05;;;;;;;17.53;15.00;;;4.50;99.90;;;;;;5007904;28;20472;-48
2020/12/31 10:13:33;;;;;;;16.27;14.13;;;4.30;99.90;;;;;;5005796;28;20567;-49
2020/12/31 10:16:03;;;;;;;16.13;13.90;;;4.30;99.90;;;;;;5004048;28;20509;-48
2020/12/31 10:18:31;;;;;;;17.23;14.60;;;4.30;99.90;;;;;;5008715;28;20494;-48
2020/12/31 10:20:58;;;;;;;17.37;14.73;;;4.30;99.90;;;;;;5006147;28;21056;-48
2020/12/31 10:23:26;;;;;;;15.70;14.03;;;4.30;99.90;;;;;;5008517;28;20476;-48
2020/12/31 10:25:53;;;;;;;15.90;14.20;;;4.40;99.90;;;;;;5008015;28;20537;-48
2020/12/31 10:28:22;;;;;;;16.50;14.50;;;4.30;99.90;;;;;;5007166;28;20480;-48
2020/12/31 10:30:51;;;;;;;17.20;14.83;;;4.30;99.90;;;;;;5003493;28;20996;-48
2020/12/31 10:33:19;;;;;;;17.00;14.63;;;4.40;99.90;;;;;;5004940;28;20478;-48
2020/12/31 10:35:46;;;;;;;17.67;14.40;;;4.30;99.90;;;;;;5007246;28;20467;-48
2020/12/31 10:38:13;;;;;;;18.07;15.10;;;4.40;99.90;;;;;;5006610;28;20488;-48
2020/12/31 10:40:40;;;;;;;18.57;15.93;;;4.40;99.90;;;;;;5007457;28;20744;-49
2020/12/31 10:43:08;;;;;;;19.10;14.53;;;4.40;99.90;;;;;;4998815;28;20477;-48
2020/12/31 10:45:35;;;;;;;17.73;15.13;;;4.40;99.90;;;;;;4997676;28;20474;-49
2020/12/31 10:48:07;;;;;;;19.87;16.10;;;4.40;99.90;;;;;;5000305;28;20911;-48
2020/12/31 10:50:35;;;;;;;18.33;14.20;;;4.40;99.90;;;;;;5005178;28;20995;-48
2020/12/31 10:53:02;;;;;;;17.40;15.00;;;4.30;99.90;;;;;;5001093;28;20545;-48
2020/12/31 10:55:30;;;;;;;19.10;15.27;;;4.30;99.90;;;;;;5005190;28;20494;-48
2020/12/31 10:57:58;;;;;;;21.03;16.23;;;4.30;99.90;;;;;;5007070;28;20575;-48
2020/12/31 11:00:26;;;;;;;16.97;14.53;;;4.30;99.90;;;;;;5003707;28;20984;-48
2020/12/31 11:02:53;;;;;;;18.77;15.00;;;4.30;99.90;;;;;;4995330;28;20488;-48
2020/12/31 11:05:21;;;;;;;18.70;15.83;;;4.30;99.90;;;;;;5007638;28;20490;-48
2020/12/31 11:07:49;;;;;;;19.50;15.43;;;4.30;99.90;;;;;;5007534;28;20480;-48
2020/12/31 11:10:16;;;;;;;20.50;15.43;;;4.30;99.90;;;;;;4999486;28;20508;-48
2020/12/31 11:12:45;;;;;;;19.40;16.00;;;4.40;99.90;;;;;;4995458;28;20679;-48
2020/12/31 11:15:12;;;;;;;18.47;15.17;;;4.40;99.90;;;;;;5002668;28;21102;-48
2020/12/31 11:17:39;;;;;;;18.97;15.17;;;4.40;99.90;;;;;;5005285;28;20518;-48
2020/12/31 11:20:07;;;;;;;19.50;15.53;;;4.40;99.90;;;;;;5007945;28;20532;-48
2020/12/31 11:22:35;;;;;;;19.20;16.00;;;4.30;99.90;;;;;;4999254;28;21059;-48
2020/12/31 11:25:03;;;;;;;18.13;14.80;;;4.30;99.90;;;;;;4998039;28;20478;-49
2020/12/31 11:27:31;;;;;;;16.67;14.47;;;4.30;99.90;;;;;;5005295;28;20831;-48
2020/12/31 11:29:59;;;;;;;16.23;14.40;;;4.30;99.90;;;;;;5004438;28;20894;-48
2020/12/31 11:32:27;;;;;;;18.07;14.40;;;4.30;99.90;;;;;;4999104;28;20600;-48
2020/12/31 11:34:54;;;;;;;16.47;13.80;;;4.30;99.90;;;;;;4996654;28;20933;-48
2020/12/31 11:37:21;;;;;;;19.40;15.10;;;4.30;99.90;;;;;;4997691;28;20577;-48
2020/12/31 11:39:49;;;;;;;17.00;14.43;;;4.30;99.90;;;;;;4996855;28;20484;-48
2020/12/31 11:42:16;;;;;;;16.63;13.80;;;4.30;99.90;;;;;;4995057;28;20517;-48
2020/12/31 11:44:44;;;;;;;17.00;14.20;;;4.30;99.90;;;;;;4994753;28;20505;-48
2020/12/31 11:47:11;;;;;;;18.77;14.57;;;4.30;99.90;;;;;;4996618;28;20899;-48
2020/12/31 11:49:39;;;;;;;18.60;14.43;;;4.30;99.90;;;;;;4996008;28;20595;-48
2020/12/31 11:52:06;;;;;;;18.77;14.60;;;4.40;99.90;;;;;;4991827;28;20475;-48
2020/12/31 11:54:33;;;;;;;19.63;14.90;;;4.40;99.90;;;;;;4992472;28;21058;-48
2020/12/31 11:57:04;;;;;;;16.27;14.30;;;4.30;99.90;;;;;;5005842;28;20490;-48
2020/12/31 11:59:32;;;;;;;15.60;13.90;;;4.30;99.90;;;;;;5005995;28;20565;-48
2020/12/31 12:01:59;;;;;;;16.70;13.30;;;4.40;99.90;;;;;;5005218;28;20510;-48
2020/12/31 12:04:26;;;;;;;16.23;13.47;;;4.40;99.90;;;;;;4998826;28;20535;-47
2020/12/31 12:06:54;;;;;;;17.73;14.50;;;4.40;99.90;;;;;;5005053;28;20569;-47
2020/12/31 12:09:22;;;;;;;14.73;12.63;;;4.40;99.90;;;;;;5003104;28;21008;-48
2020/12/31 12:11:49;;;;;;;16.53;14.03;;;4.40;99.90;;;;;;5002224;28;20580;-48
2020/12/31 12:14:18;;;;;;;18.13;15.40;;;4.40;99.90;;;;;;5009534;28;20646;-47
2020/12/31 12:16:48;;;;;;;16.37;13.63;;;4.50;99.90;;;;;;5011658;28;20514;-48
2020/12/31 12:19:16;;;;;;;16.00;13.60;;;4.40;99.90;;;;;;5001157;28;20566;-47
2020/12/31 12:21:43;;;;;;;15.87;12.60;;;4.40;99.90;;;;;;5000952;28;20528;-47
2020/12/31 12:24:11;;;;;;;15.87;13.70;;;4.40;99.90;;;;;;4999210;28;20587;-48
2020/12/31 12:26:39;;;;;;;15.70;13.27;;;4.40;99.90;;;;;;5004659;28;20498;-47
2020/12/31 12:29:08;;;;;;;15.00;12.80;;;4.30;99.90;;;;;;5010405;28;20502;-48
2020/12/31 12:31:38;;;;;;;15.80;12.30;;;4.40;99.90;;;;;;5003516;28;20495;-47
2020/12/31 12:34:07;;;;;;;14.83;12.97;;;4.40;99.90;;;;;;5000289;28;20869;-48
2020/12/31 12:36:35;;;;;;;14.80;12.67;;;4.30;99.90;;;;;;5000474;28;20485;-48
2020/12/31 12:39:04;;;;;;;15.47;13.00;;;4.40;99.90;;;;;;5004968;28;20488;-47
2020/12/31 12:41:32;;;;;;;14.53;12.67;;;4.40;99.90;;;;;;4999188;28;20920;-48
2020/12/31 12:43:59;;;;;;;15.47;13.30;;;4.40;99.90;;;;;;5000990;28;20538;-48
2020/12/31 12:46:27;;;;;;;15.20;12.67;;;4.40;99.90;;;;;;5005194;28;20502;-48